createdAt,value
2015-11-10T00:00:10.546Z,1.76
2015-11-10T00:00:23.859Z,1.71
2015-11-10T00:00:37.142Z,1.66
2015-11-10T00:00:50.423Z,1.74
2015-11-10T00:01:03.673Z,1.75
2015-11-10T00:01:16.970Z,1.66
2015-11-10T00:01:44.395Z,1.64
2015-11-10T00:01:57.676Z,1.64
2015-11-10T00:02:10.973Z,1.66
2015-11-10T00:02:24.270Z,1.57
2015-11-10T00:02:37.583Z,1.68
2015-11-10T00:02:50.867Z,1.64
2015-11-10T00:03:04.429Z,1.66
2015-11-10T00:03:17.695Z,1.57
2015-11-10T00:03:30.976Z,1.56
2015-11-10T00:03:44.244Z,1.61
2015-11-10T00:03:57.541Z,1.68
2015-11-10T00:04:11.025Z,1.66
2015-11-10T00:04:24.306Z,1.61
2015-11-10T00:04:37.619Z,1.53
2015-11-10T00:04:50.934Z,1.53
2015-11-10T00:05:04.247Z,1.46
2015-11-10T00:05:17.513Z,1.5
2015-11-10T00:05:30.794Z,1.58
2015-11-10T00:05:44.062Z,1.72
2015-11-10T00:05:57.375Z,1.79
2015-11-10T00:06:10.641Z,1.76
2015-11-10T00:06:23.937Z,1.84
2015-11-10T00:06:37.219Z,1.78
2015-11-10T00:06:50.502Z,1.87
2015-11-10T00:07:03.814Z,1.83
2015-11-10T00:07:17.127Z,1.82
2015-11-10T00:07:30.408Z,1.84
2015-11-10T00:07:43.677Z,1.97
2015-11-10T00:07:56.974Z,2.01
2015-11-10T00:08:10.224Z,1.92
2015-11-10T00:08:23.505Z,2.09
2015-11-10T00:08:36.786Z,2.16
2015-11-10T00:08:50.070Z,2.22
2015-11-10T00:09:03.367Z,2.18
2015-11-10T00:09:16.664Z,2.23
2015-11-10T00:09:29.992Z,2.12
2015-11-10T00:09:43.258Z,2.18
2015-11-10T00:09:56.527Z,2.18
2015-11-10T00:10:09.808Z,2.16
2015-11-10T00:10:23.073Z,2.13
2015-11-10T00:10:36.355Z,2.04
2015-11-10T00:10:49.654Z,2.06
2015-11-10T00:11:02.966Z,2.06
2015-11-10T00:11:16.279Z,2.04
2015-11-10T00:11:29.560Z,1.97
2015-11-10T00:11:42.825Z,2.02
2015-11-10T00:11:56.094Z,2.05
2015-11-10T00:12:09.360Z,2.12
2015-11-10T00:12:22.641Z,2.02
2015-11-10T00:12:35.907Z,2.02
2015-11-10T00:12:49.190Z,1.83
2015-11-10T00:13:02.471Z,1.72
2015-11-10T00:13:15.752Z,1.65
2015-11-10T00:13:29.065Z,1.57
2015-11-10T00:13:42.377Z,1.54
2015-11-10T00:13:55.647Z,1.44
2015-11-10T00:14:08.928Z,1.36
2015-11-10T00:14:22.178Z,1.36
2015-11-10T00:14:35.444Z,1.38
2015-11-10T00:14:48.727Z,1.32
2015-11-10T00:15:02.008Z,1.33
2015-11-10T00:15:15.290Z,1.3
2015-11-10T00:15:28.602Z,1.2
2015-11-10T00:15:41.899Z,1.08
2015-11-10T00:15:55.214Z,1
2015-11-10T00:16:08.480Z,1
2015-11-10T00:16:21.761Z,1
2015-11-10T00:16:35.043Z,1.08
2015-11-10T00:16:48.324Z,1.18
2015-11-10T00:17:01.592Z,1.18
2015-11-10T00:17:14.874Z,1.11
2015-11-10T00:17:28.171Z,1.12
2015-11-10T00:17:41.467Z,1.14
2015-11-10T00:17:54.766Z,1.18
2015-11-10T00:18:08.079Z,1.17
2015-11-10T00:18:21.391Z,1.24
2015-11-10T00:18:34.673Z,1.28
2015-11-10T00:18:47.938Z,1.26
2015-11-10T00:19:01.207Z,1.33
2015-11-10T00:19:14.488Z,1.36
2015-11-10T00:19:27.754Z,1.38
2015-11-10T00:19:41.347Z,1.44
2015-11-10T00:19:54.647Z,1.44
2015-11-10T00:20:07.944Z,1.42
2015-11-10T00:20:21.272Z,1.38
2015-11-10T00:20:34.585Z,1.44
2015-11-10T00:20:47.866Z,1.42
2015-11-10T00:21:01.135Z,1.4
2015-11-10T00:21:14.385Z,1.58
2015-11-10T00:21:27.666Z,1.64
2015-11-10T00:21:40.963Z,1.64
2015-11-10T00:21:54.291Z,1.65
2015-11-10T00:22:07.605Z,1.68
2015-11-10T00:22:20.918Z,1.76
2015-11-10T00:22:34.230Z,1.78
2015-11-10T00:22:47.496Z,1.84
2015-11-10T00:23:00.765Z,1.82
2015-11-10T00:23:14.030Z,1.64
2015-11-10T00:23:27.327Z,1.65
2015-11-10T00:23:40.593Z,1.66
2015-11-10T00:23:53.874Z,1.57
2015-11-10T00:24:07.158Z,1.54
2015-11-10T00:24:20.455Z,1.57
2015-11-10T00:24:33.850Z,1.57
2015-11-10T00:24:47.230Z,1.54
2015-11-10T00:25:00.513Z,1.54
2015-11-10T00:25:13.778Z,1.46
2015-11-10T00:25:27.060Z,1.35
2015-11-10T00:25:54.482Z,1.22
2015-11-10T00:26:07.751Z,1.14
2015-11-10T00:26:21.032Z,1.11
2015-11-10T00:26:34.314Z,1.15
2015-11-10T00:26:47.595Z,1.11
2015-11-10T00:27:00.894Z,1.1
2015-11-10T00:27:14.206Z,1.2
2015-11-10T00:27:27.550Z,1.26
2015-11-10T00:27:40.816Z,1.3
2015-11-10T00:27:54.081Z,1.35
2015-11-10T00:28:07.366Z,1.5
2015-11-10T00:28:20.647Z,1.5
2015-11-10T00:28:33.928Z,1.54
2015-11-10T00:28:47.194Z,1.54
2015-11-10T00:29:00.475Z,1.56
2015-11-10T00:29:13.758Z,1.57
2015-11-10T00:29:27.071Z,1.51
2015-11-10T00:29:40.399Z,1.44
2015-11-10T00:29:53.696Z,1.46
2015-11-10T00:30:07.027Z,1.44
2015-11-10T00:30:20.292Z,1.42
2015-11-10T00:30:33.558Z,1.48
2015-11-10T00:30:46.824Z,1.54
2015-11-10T00:31:00.105Z,1.54
2015-11-10T00:31:13.406Z,1.51
2015-11-10T00:31:26.703Z,1.48
2015-11-10T00:31:39.968Z,1.44
2015-11-10T00:31:53.250Z,1.53
2015-11-10T00:32:06.564Z,1.69
2015-11-10T00:32:19.892Z,1.61
2015-11-10T00:32:47.314Z,1.5
2015-11-10T00:33:00.580Z,1.5
2015-11-10T00:33:13.863Z,1.44
2015-11-10T00:33:27.129Z,1.36
2015-11-10T00:33:40.394Z,1.39
2015-11-10T00:33:53.519Z,1.33
2015-11-10T00:34:06.816Z,1.32
2015-11-10T00:34:20.100Z,1.22
2015-11-10T00:34:33.413Z,1.32
2015-11-10T00:34:46.757Z,1.3
2015-11-10T00:35:00.038Z,1.32
2015-11-10T00:35:13.291Z,1.4
2015-11-10T00:35:26.572Z,1.4
2015-11-10T00:35:39.853Z,1.35
2015-11-10T00:35:53.135Z,1.33
2015-11-10T00:36:06.447Z,1.33
2015-11-10T00:36:19.747Z,1.38
2015-11-10T00:36:33.013Z,1.46
2015-11-10T00:36:46.278Z,1.42
2015-11-10T00:36:59.544Z,1.39
2015-11-10T00:37:12.828Z,1.42
2015-11-10T00:37:26.094Z,1.36
2015-11-10T00:37:39.359Z,1.5
2015-11-10T00:37:52.641Z,1.46
2015-11-10T00:38:05.922Z,1.56
2015-11-10T00:38:19.236Z,1.65
2015-11-10T00:38:32.549Z,1.64
2015-11-10T00:38:45.830Z,1.72
2015-11-10T00:38:59.080Z,1.71
2015-11-10T00:39:12.377Z,1.84
2015-11-10T00:39:25.661Z,1.82
2015-11-10T00:39:38.927Z,1.84
2015-11-10T00:39:52.192Z,1.93
2015-11-10T00:40:05.474Z,1.94
2015-11-10T00:40:18.788Z,1.97
2015-11-10T00:40:32.116Z,1.87
2015-11-10T00:40:45.382Z,1.82
2015-11-10T00:40:58.648Z,1.89
2015-11-10T00:41:11.913Z,1.82
2015-11-10T00:41:25.197Z,1.86
2015-11-10T00:41:38.479Z,1.86
2015-11-10T00:41:51.776Z,1.83
2015-11-10T00:42:05.088Z,1.89
2015-11-10T00:42:18.357Z,1.87
2015-11-10T00:42:31.622Z,1.86
2015-11-10T00:42:44.904Z,1.78
2015-11-10T00:42:58.169Z,1.84
2015-11-10T00:43:11.482Z,1.83
2015-11-10T00:43:24.766Z,1.86
2015-11-10T00:43:38.078Z,1.83
2015-11-10T00:43:51.375Z,1.82
2015-11-10T00:44:04.641Z,1.79
2015-11-10T00:44:17.925Z,1.82
2015-11-10T00:44:31.191Z,1.83
2015-11-10T00:44:44.519Z,1.82
2015-11-10T00:44:57.847Z,1.9
2015-11-10T00:45:11.144Z,1.92
2015-11-10T00:45:24.458Z,2.05
2015-11-10T00:45:37.755Z,1.94
2015-11-10T00:45:51.052Z,2.01
2015-11-10T00:46:04.318Z,2.05
2015-11-10T00:46:17.586Z,2.06
2015-11-10T00:46:30.899Z,2.15
2015-11-10T00:46:44.180Z,2.22
2015-11-10T00:46:57.446Z,2.2
2015-11-10T00:47:10.711Z,2.2
2015-11-10T00:47:24.058Z,2.31
2015-11-10T00:47:37.683Z,2.27
2015-11-10T00:47:50.996Z,2.26
2015-11-10T00:48:04.324Z,2.29
2015-11-10T00:48:17.624Z,2.18
2015-11-10T00:48:30.889Z,2.22
2015-11-10T00:48:44.155Z,2.16
2015-11-10T00:48:57.421Z,2.23
2015-11-10T00:49:24.860Z,2.15
2015-11-10T00:49:38.126Z,2.2
2015-11-10T00:49:51.391Z,2.22
2015-11-10T00:50:04.688Z,2.18
2015-11-10T00:50:17.969Z,2.2
2015-11-10T00:50:31.285Z,2.16
2015-11-10T00:50:44.597Z,2.18
2015-11-10T00:50:57.894Z,2.29
2015-11-10T00:51:11.160Z,2.18
2015-11-10T00:51:24.429Z,2.18
2015-11-10T00:51:37.694Z,2.08
2015-11-10T00:51:50.960Z,2.01
2015-11-10T00:52:04.241Z,2.01
2015-11-10T00:52:17.507Z,2.02
2015-11-10T00:52:30.807Z,1.92
2015-11-10T00:52:44.088Z,1.92
2015-11-10T00:52:57.416Z,1.93
2015-11-10T00:53:10.728Z,2.06
2015-11-10T00:53:24.215Z,2.05
2015-11-10T00:53:37.496Z,1.97
2015-11-10T00:53:50.777Z,2.02
2015-11-10T00:54:04.043Z,2.02
2015-11-10T00:54:19.668Z,1.92
2015-11-10T00:54:32.952Z,2.08
2015-11-10T00:54:46.249Z,2.05
2015-11-10T00:54:59.530Z,2.18
2015-11-10T00:55:12.858Z,2.16
2015-11-10T00:55:26.127Z,2.16
2015-11-10T00:55:39.408Z,2.24
2015-11-10T00:55:52.721Z,2.24
2015-11-10T00:56:05.971Z,2.27
2015-11-10T00:56:19.252Z,2.29
2015-11-10T00:56:32.551Z,2.24
2015-11-10T00:56:45.692Z,2.26
2015-11-10T00:56:59.020Z,2.27
2015-11-10T00:57:12.285Z,2.31
2015-11-10T00:57:25.551Z,2.31
2015-11-10T00:57:38.835Z,2.26
2015-11-10T00:57:52.101Z,2.27
2015-11-10T00:58:05.449Z,2.27
2015-11-10T00:58:18.715Z,2.26
2015-11-10T00:58:32.015Z,2.23
2015-11-10T00:58:45.312Z,2.34
2015-11-10T00:58:58.624Z,2.38
2015-11-10T00:59:11.921Z,2.44
2015-11-10T00:59:25.218Z,2.49
2015-11-10T00:59:38.486Z,2.54
2015-11-10T00:59:51.751Z,2.54
2015-11-10T01:00:05.033Z,2.42
2015-11-10T01:00:18.314Z,2.36
2015-11-10T01:00:31.599Z,2.41
2015-11-10T01:00:44.865Z,2.24
2015-11-10T01:00:58.162Z,2.36
2015-11-10T01:01:11.443Z,2.27
2015-11-10T01:01:24.755Z,2.2
2015-11-10T01:01:38.085Z,2.16
2015-11-10T01:01:52.617Z,2.22
2015-11-10T01:02:05.882Z,2.26
2015-11-10T01:02:19.148Z,2.15
2015-11-10T01:02:32.431Z,2.18
2015-11-10T01:02:45.697Z,2.23
2015-11-10T01:02:58.962Z,2.24
2015-11-10T01:03:12.259Z,2.18
2015-11-10T01:03:25.541Z,2.26
2015-11-10T01:03:38.841Z,2.16
2015-11-10T01:03:52.107Z,2.3
2015-11-10T01:04:05.373Z,2.38
2015-11-10T01:04:18.638Z,2.29
2015-11-10T01:04:31.920Z,2.26
2015-11-10T01:04:45.218Z,2.34
2015-11-10T01:04:58.531Z,2.4
2015-11-10T01:05:11.843Z,2.45
2015-11-10T01:05:25.156Z,2.41
2015-11-10T01:05:38.424Z,2.4
2015-11-10T01:05:51.674Z,2.47
2015-11-10T01:06:04.939Z,2.36
2015-11-10T01:06:18.189Z,2.38
2015-11-10T01:06:31.470Z,2.36
2015-11-10T01:06:44.723Z,2.38
2015-11-10T01:06:58.005Z,2.3
2015-11-10T01:07:11.302Z,2.34
2015-11-10T01:07:24.614Z,2.27
2015-11-10T01:07:37.915Z,2.26
2015-11-10T01:07:51.181Z,2.27
2015-11-10T01:08:18.618Z,2.31
2015-11-10T01:08:31.884Z,2.41
2015-11-10T01:08:45.168Z,2.4
2015-11-10T01:08:58.434Z,2.52
2015-11-10T01:09:11.715Z,2.48
2015-11-10T01:09:25.012Z,2.51
2015-11-10T01:09:38.324Z,2.45
2015-11-10T01:09:51.654Z,2.48
2015-11-10T01:10:04.920Z,2.48
2015-11-10T01:10:18.186Z,2.38
2015-11-10T01:10:31.451Z,2.44
2015-11-10T01:10:44.719Z,2.48
2015-11-10T01:10:57.984Z,2.52
2015-11-10T01:11:11.266Z,2.38
2015-11-10T01:11:24.578Z,2.36
2015-11-10T01:11:37.875Z,2.44
2015-11-10T01:11:51.191Z,2.4
2015-11-10T01:12:04.487Z,2.38
2015-11-10T01:12:17.816Z,2.41
2015-11-10T01:12:31.081Z,2.52
2015-11-10T01:12:44.381Z,2.59
2015-11-10T01:12:57.881Z,2.52
2015-11-10T01:13:11.147Z,2.47
2015-11-10T01:13:24.412Z,2.52
2015-11-10T01:13:37.694Z,2.51
2015-11-10T01:13:50.978Z,2.47
2015-11-10T01:14:04.275Z,2.49
2015-11-10T01:14:17.587Z,2.51
2015-11-10T01:14:30.884Z,2.38
2015-11-10T01:14:44.153Z,2.48
2015-11-10T01:14:57.418Z,2.54
2015-11-10T01:15:10.684Z,2.47
2015-11-10T01:15:23.965Z,2.51
2015-11-10T01:15:37.090Z,2.54
2015-11-10T01:15:50.389Z,2.52
2015-11-10T01:16:03.702Z,2.45
2015-11-10T01:16:16.998Z,2.45
2015-11-10T01:16:30.311Z,2.41
2015-11-10T01:16:43.577Z,2.26
2015-11-10T01:16:56.845Z,2.26
2015-11-10T01:17:10.111Z,2.33
2015-11-10T01:17:23.376Z,2.33
2015-11-10T01:17:36.642Z,2.27
2015-11-10T01:17:49.942Z,2.3
2015-11-10T01:18:03.239Z,2.27
2015-11-10T01:18:16.551Z,2.31
2015-11-10T01:18:29.879Z,2.31
2015-11-10T01:18:43.208Z,2.26
2015-11-10T01:18:56.492Z,2.29
2015-11-10T01:19:09.757Z,2.24
2015-11-10T01:19:23.023Z,2.24
2015-11-10T01:19:36.304Z,2.23
2015-11-10T01:19:49.588Z,2.24
2015-11-10T01:20:02.869Z,2.26
2015-11-10T01:20:16.150Z,2.23
2015-11-10T01:20:29.431Z,2.29
2015-11-10T01:20:42.791Z,2.24
2015-11-10T01:20:56.075Z,2.38
2015-11-10T01:21:09.341Z,2.41
2015-11-10T01:21:22.606Z,2.27
2015-11-10T01:21:36.106Z,2.4
2015-11-10T01:21:49.387Z,2.33
2015-11-10T01:22:02.671Z,2.41
2015-11-10T01:22:15.999Z,2.47
2015-11-10T01:22:29.327Z,2.54
2015-11-10T01:22:42.483Z,2.51
2015-11-10T01:23:14.737Z,2.51
2015-11-10T01:23:28.003Z,2.44
2015-11-10T01:23:41.268Z,2.44
2015-11-10T01:23:54.534Z,2.38
2015-11-10T01:24:07.817Z,2.41
2015-11-10T01:24:21.099Z,2.36
2015-11-10T01:24:34.395Z,2.42
2015-11-10T01:24:47.708Z,2.41
2015-11-10T01:25:01.005Z,2.38
2015-11-10T01:25:14.289Z,2.42
2015-11-10T01:25:27.570Z,2.47
2015-11-10T01:25:40.836Z,2.45
2015-11-10T01:25:54.133Z,2.41
2015-11-10T01:26:07.414Z,2.42
2015-11-10T01:26:20.698Z,2.44
2015-11-10T01:26:33.995Z,2.44
2015-11-10T01:26:47.292Z,2.59
2015-11-10T01:27:00.620Z,2.54
2015-11-10T01:27:13.889Z,2.54
2015-11-10T01:27:27.170Z,2.54
2015-11-10T01:27:40.279Z,2.51
2015-11-10T01:27:53.529Z,2.38
2015-11-10T01:28:06.811Z,2.36
2015-11-10T01:28:20.079Z,2.34
2015-11-10T01:28:33.376Z,2.36
2015-11-10T01:28:46.657Z,2.41
2015-11-10T01:28:59.970Z,2.29
2015-11-10T01:29:13.270Z,2.34
2015-11-10T01:29:26.535Z,2.24
2015-11-10T01:29:39.801Z,2.26
2015-11-10T01:29:53.067Z,2.27
2015-11-10T01:30:06.364Z,2.34
2015-11-10T01:30:19.647Z,2.4
2015-11-10T01:30:32.975Z,2.49
2015-11-10T01:30:46.272Z,2.48
2015-11-10T01:30:59.537Z,2.49
2015-11-10T01:31:12.822Z,2.44
2015-11-10T01:31:26.087Z,2.33
2015-11-10T01:31:39.369Z,2.3
2015-11-10T01:31:52.665Z,2.36
2015-11-10T01:32:05.947Z,2.23
2015-11-10T01:32:19.261Z,2.29
2015-11-10T01:32:32.402Z,2.26
2015-11-10T01:32:45.667Z,2.33
2015-11-10T01:32:58.949Z,2.27
2015-11-10T01:33:12.214Z,2.29
2015-11-10T01:33:25.483Z,2.23
2015-11-10T01:33:38.764Z,2.29
2015-11-10T01:33:52.045Z,2.24
2015-11-10T01:34:05.327Z,2.24
2015-11-10T01:34:18.627Z,2.18
2015-11-10T01:34:31.923Z,2.23
2015-11-10T01:34:45.236Z,2.22
2015-11-10T01:34:58.533Z,2.24
2015-11-10T01:35:11.814Z,2.26
2015-11-10T01:35:25.082Z,2.26
2015-11-10T01:35:38.425Z,2.26
2015-11-10T01:35:51.691Z,2.24
2015-11-10T01:36:04.972Z,2.23
2015-11-10T01:36:18.257Z,2.23
2015-11-10T01:36:31.553Z,2.27
2015-11-10T01:36:44.850Z,2.27
2015-11-10T01:36:58.163Z,2.34
2015-11-10T01:37:11.491Z,2.38
2015-11-10T01:37:24.775Z,2.42
2015-11-10T01:37:38.041Z,2.41
2015-11-10T01:37:51.322Z,2.34
2015-11-10T01:38:04.588Z,2.48
2015-11-10T01:38:17.856Z,2.54
2015-11-10T01:38:31.122Z,2.54
2015-11-10T01:38:44.419Z,2.58
2015-11-10T01:38:57.716Z,2.47
2015-11-10T01:39:11.013Z,2.36
2015-11-10T01:39:24.328Z,2.38
2015-11-10T01:39:37.594Z,2.36
2015-11-10T01:39:50.859Z,2.34
2015-11-10T01:40:04.328Z,2.34
2015-11-10T01:40:17.594Z,2.38
2015-11-10T01:40:30.846Z,2.33
2015-11-10T01:40:44.127Z,2.34
2015-11-10T01:40:57.408Z,2.36
2015-11-10T01:41:10.689Z,2.34
2015-11-10T01:41:24.005Z,2.42
2015-11-10T01:41:37.317Z,2.4
2015-11-10T01:41:50.630Z,2.52
2015-11-10T01:42:03.911Z,2.52
2015-11-10T01:42:17.177Z,2.54
2015-11-10T01:42:30.461Z,2.4
2015-11-10T01:42:43.727Z,2.42
2015-11-10T01:42:57.008Z,2.45
2015-11-10T01:43:10.274Z,2.45
2015-11-10T01:43:23.572Z,2.4
2015-11-10T01:43:36.854Z,2.41
2015-11-10T01:43:50.010Z,2.4
2015-11-10T01:44:03.322Z,2.34
2015-11-10T01:44:16.635Z,2.34
2015-11-10T01:44:29.919Z,2.36
2015-11-10T01:44:43.232Z,2.44
2015-11-10T01:44:56.497Z,2.42
2015-11-10T01:45:09.779Z,2.45
2015-11-10T01:45:23.063Z,2.38
2015-11-10T01:45:36.328Z,2.42
2015-11-10T01:45:49.610Z,2.42
2015-11-10T01:46:02.907Z,2.51
2015-11-10T01:46:16.203Z,2.41
2015-11-10T01:46:29.503Z,2.38
2015-11-10T01:46:42.816Z,2.41
2015-11-10T01:46:56.113Z,2.34
2015-11-10T01:47:09.378Z,2.29
2015-11-10T01:47:22.644Z,2.33
2015-11-10T01:47:35.927Z,2.4
2015-11-10T01:47:49.193Z,2.23
2015-11-10T01:48:02.458Z,2.33
2015-11-10T01:48:15.740Z,2.44
2015-11-10T01:48:29.040Z,2.34
2015-11-10T01:48:42.336Z,2.24
2015-11-10T01:48:55.665Z,2.34
2015-11-10T01:49:08.930Z,2.31
2015-11-10T01:49:22.211Z,2.38
2015-11-10T01:49:35.480Z,2.36
2015-11-10T01:49:48.746Z,2.36
2015-11-10T01:50:02.011Z,2.34
2015-11-10T01:50:15.308Z,2.47
2015-11-10T01:50:28.592Z,2.45
2015-11-10T01:50:41.889Z,2.42
2015-11-10T01:50:55.186Z,2.44
2015-11-10T01:51:08.358Z,2.36
2015-11-10T01:51:21.702Z,2.24
2015-11-10T01:51:34.969Z,2.26
2015-11-10T01:51:48.266Z,2.26
2015-11-10T01:52:01.532Z,2.26
2015-11-10T01:52:14.798Z,2.23
2015-11-10T01:52:28.066Z,2.4
2015-11-10T01:52:41.363Z,2.29
2015-11-10T01:52:54.660Z,2.36
2015-11-10T01:53:07.941Z,2.36
2015-11-10T01:53:21.254Z,2.34
2015-11-10T01:53:34.522Z,2.34
2015-11-10T01:53:47.835Z,2.26
2015-11-10T01:54:01.116Z,2.41
2015-11-10T01:54:14.382Z,2.34
2015-11-10T01:54:27.679Z,2.36
2015-11-10T01:54:40.963Z,2.33
2015-11-10T01:54:54.260Z,2.41
2015-11-10T01:55:07.541Z,2.38
2015-11-10T01:55:20.853Z,2.41
2015-11-10T01:55:34.012Z,2.42
2015-11-10T01:55:47.324Z,2.45
2015-11-10T01:56:00.621Z,2.48
2015-11-10T01:56:13.887Z,2.38
2015-11-10T01:56:27.152Z,2.4
2015-11-10T01:56:40.421Z,2.38
2015-11-10T01:56:53.687Z,2.51
2015-11-10T01:57:06.968Z,2.34
2015-11-10T01:57:20.249Z,2.33
2015-11-10T01:57:33.533Z,2.27
2015-11-10T01:57:46.830Z,2.31
2015-11-10T01:57:59.861Z,2.34
2015-11-10T01:58:13.241Z,2.27
2015-11-10T01:58:26.476Z,2.26
2015-11-10T01:58:39.775Z,2.38
2015-11-10T01:58:52.884Z,2.34
2015-11-10T01:59:05.993Z,2.42
2015-11-10T01:59:19.275Z,2.38
2015-11-10T01:59:32.543Z,2.41
2015-11-10T01:59:45.824Z,2.36
2015-11-10T01:59:59.106Z,2.4
2015-11-10T02:00:12.387Z,2.38
2015-11-10T02:00:25.699Z,2.54
2015-11-10T02:00:38.998Z,2.52
2015-11-10T02:00:52.280Z,2.49
2015-11-10T02:01:05.561Z,2.55
2015-11-10T02:01:18.826Z,2.54
2015-11-10T02:01:32.092Z,2.58
2015-11-10T02:01:45.377Z,2.54
2015-11-10T02:01:58.643Z,2.52
2015-11-10T02:02:11.940Z,2.54
2015-11-10T02:02:25.221Z,2.54
2015-11-10T02:02:38.551Z,2.58
2015-11-10T02:02:51.848Z,2.55
2015-11-10T02:03:05.114Z,2.58
2015-11-10T02:03:18.395Z,2.55
2015-11-10T02:03:31.645Z,2.58
2015-11-10T02:03:44.929Z,2.54
2015-11-10T02:03:58.226Z,2.41
2015-11-10T02:04:11.554Z,2.44
2015-11-10T02:04:24.851Z,2.36
2015-11-10T02:04:38.167Z,2.41
2015-11-10T02:04:51.448Z,2.42
2015-11-10T02:05:04.713Z,2.36
2015-11-10T02:05:17.995Z,2.36
2015-11-10T02:05:31.276Z,2.44
2015-11-10T02:05:44.575Z,2.42
2015-11-10T02:05:57.845Z,2.44
2015-11-10T02:06:11.142Z,2.41
2015-11-10T02:06:24.423Z,2.38
2015-11-10T02:06:37.736Z,2.41
2015-11-10T02:06:51.036Z,2.49
2015-11-10T02:07:04.364Z,2.49
2015-11-10T02:07:17.661Z,2.44
2015-11-10T02:07:30.926Z,2.48
2015-11-10T02:07:44.211Z,2.4
2015-11-10T02:07:57.476Z,2.34
2015-11-10T02:08:10.742Z,2.33
2015-11-10T02:08:24.023Z,2.34
2015-11-10T02:08:37.320Z,2.34
2015-11-10T02:08:50.619Z,2.31
2015-11-10T02:09:03.885Z,2.3
2015-11-10T02:09:17.181Z,2.27
2015-11-10T02:09:30.463Z,2.26
2015-11-10T02:09:43.731Z,2.26
2015-11-10T02:09:57.013Z,2.27
2015-11-10T02:10:10.278Z,2.36
2015-11-10T02:10:23.559Z,2.34
2015-11-10T02:10:36.825Z,2.34
2015-11-10T02:10:50.125Z,2.38
2015-11-10T02:11:03.406Z,2.47
2015-11-10T02:11:30.875Z,2.4
2015-11-10T02:11:44.175Z,2.42
2015-11-10T02:11:57.487Z,2.48
2015-11-10T02:12:10.753Z,2.48
2015-11-10T02:12:24.019Z,2.52
2015-11-10T02:12:37.284Z,2.54
2015-11-10T02:12:50.553Z,2.54
2015-11-10T02:13:03.834Z,2.52
2015-11-10T02:13:17.084Z,2.45
2015-11-10T02:13:30.381Z,2.6
2015-11-10T02:13:43.678Z,2.55
2015-11-10T02:13:57.008Z,2.52
2015-11-10T02:14:10.336Z,2.55
2015-11-10T02:14:23.899Z,2.6
2015-11-10T02:14:37.164Z,2.66
2015-11-10T02:14:50.417Z,2.65
2015-11-10T02:15:03.698Z,2.72
2015-11-10T02:15:16.964Z,2.72
2015-11-10T02:15:30.245Z,2.72
2015-11-10T02:15:43.542Z,2.66
2015-11-10T02:15:56.841Z,2.69
2015-11-10T02:16:10.122Z,2.6
2015-11-10T02:16:23.404Z,2.6
2015-11-10T02:16:36.669Z,2.69
2015-11-10T02:16:49.939Z,2.55
2015-11-10T02:17:03.204Z,2.63
2015-11-10T02:17:16.470Z,2.63
2015-11-10T02:17:29.767Z,2.69
2015-11-10T02:17:43.079Z,2.63
2015-11-10T02:17:56.410Z,2.6
2015-11-10T02:18:09.722Z,2.55
2015-11-10T02:18:23.066Z,2.69
2015-11-10T02:18:36.347Z,2.54
2015-11-10T02:18:49.613Z,2.62
2015-11-10T02:19:02.881Z,2.69
2015-11-10T02:19:16.147Z,2.63
2015-11-10T02:19:29.428Z,2.62
2015-11-10T02:19:42.709Z,2.63
2015-11-10T02:19:55.994Z,2.59
2015-11-10T02:20:09.291Z,2.59
2015-11-10T02:20:22.587Z,2.69
2015-11-10T02:20:35.916Z,2.66
2015-11-10T02:20:49.228Z,2.65
2015-11-10T02:21:02.496Z,2.65
2015-11-10T02:21:15.746Z,2.67
2015-11-10T02:21:29.027Z,2.77
2015-11-10T02:21:42.308Z,2.73
2015-11-10T02:21:55.577Z,2.76
2015-11-10T02:22:08.874Z,2.66
2015-11-10T02:22:22.155Z,2.66
2015-11-10T02:22:35.452Z,2.66
2015-11-10T02:22:48.749Z,2.78
2015-11-10T02:23:02.064Z,2.69
2015-11-10T02:23:15.361Z,2.69
2015-11-10T02:23:28.642Z,2.73
2015-11-10T02:23:41.908Z,2.7
2015-11-10T02:23:55.189Z,2.78
2015-11-10T02:24:08.457Z,2.69
2015-11-10T02:24:21.738Z,2.76
2015-11-10T02:24:35.004Z,2.77
2015-11-10T02:24:48.269Z,2.76
2015-11-10T02:25:01.569Z,2.77
2015-11-10T02:25:14.882Z,2.7
2015-11-10T02:25:28.210Z,2.76
2015-11-10T02:25:41.491Z,2.76
2015-11-10T02:25:54.772Z,2.7
2015-11-10T02:26:08.041Z,2.72
2015-11-10T02:26:21.322Z,2.69
2015-11-10T02:26:34.603Z,2.78
2015-11-10T02:26:47.869Z,2.73
2015-11-10T02:27:01.185Z,2.78
2015-11-10T02:27:14.466Z,2.78
2015-11-10T02:27:27.763Z,2.73
2015-11-10T02:27:41.060Z,2.67
2015-11-10T02:27:54.388Z,2.69
2015-11-10T02:28:07.702Z,2.67
2015-11-10T02:28:20.968Z,2.65
2015-11-10T02:28:34.249Z,2.66
2015-11-10T02:28:47.515Z,2.7
2015-11-10T02:29:00.783Z,2.67
2015-11-10T02:29:13.908Z,2.67
2015-11-10T02:29:27.174Z,2.66
2015-11-10T02:29:40.471Z,2.76
2015-11-10T02:29:53.799Z,2.73
2015-11-10T02:30:07.114Z,2.73
2015-11-10T02:30:20.396Z,2.76
2015-11-10T02:30:33.661Z,2.66
2015-11-10T02:30:46.943Z,2.78
2015-11-10T02:31:00.208Z,2.77
2015-11-10T02:31:13.538Z,2.77
2015-11-10T02:31:26.804Z,2.7
2015-11-10T02:31:40.085Z,2.7
2015-11-10T02:31:53.366Z,2.73
2015-11-10T02:32:06.698Z,2.77
2015-11-10T02:32:19.994Z,2.77
2015-11-10T02:32:33.323Z,2.77
2015-11-10T02:32:46.635Z,2.78
2015-11-10T02:32:59.901Z,2.84
2015-11-10T02:33:13.185Z,2.78
2015-11-10T02:33:26.451Z,2.83
2015-11-10T02:33:39.732Z,2.85
2015-11-10T02:33:52.997Z,2.87
2015-11-10T02:34:06.266Z,2.9
2015-11-10T02:34:19.563Z,2.99
2015-11-10T02:34:32.844Z,2.95
2015-11-10T02:34:46.172Z,2.91
2015-11-10T02:34:59.438Z,2.88
2015-11-10T02:35:12.707Z,2.93
2015-11-10T02:35:25.972Z,2.95
2015-11-10T02:35:39.269Z,2.96
2015-11-10T02:35:52.566Z,2.98
2015-11-10T02:36:05.707Z,2.99
2015-11-10T02:36:19.006Z,2.98
2015-11-10T02:36:32.335Z,2.91
2015-11-10T02:36:45.616Z,2.99
2015-11-10T02:36:58.897Z,2.88
2015-11-10T02:37:12.180Z,2.93
2015-11-10T02:37:25.446Z,2.96
2015-11-10T02:37:38.727Z,2.87
2015-11-10T02:37:52.008Z,2.83
2015-11-10T02:38:05.290Z,2.91
2015-11-10T02:38:18.574Z,2.9
2015-11-10T02:38:31.871Z,2.88
2015-11-10T02:38:45.183Z,2.85
2015-11-10T02:38:58.480Z,2.91
2015-11-10T02:39:11.748Z,2.9
2015-11-10T02:39:25.029Z,2.88
2015-11-10T02:39:38.310Z,2.95
2015-11-10T02:39:51.576Z,2.84
2015-11-10T02:40:04.842Z,2.77
2015-11-10T02:40:18.126Z,2.91
2015-11-10T02:40:31.407Z,2.85
2015-11-10T02:40:44.735Z,2.95
2015-11-10T02:40:58.063Z,2.96
2015-11-10T02:41:11.329Z,2.93
2015-11-10T02:41:24.613Z,2.87
2015-11-10T02:41:37.894Z,2.85
2015-11-10T02:41:51.160Z,2.87
2015-11-10T02:42:04.441Z,2.9
2015-11-10T02:42:17.710Z,2.85
2015-11-10T02:42:30.991Z,2.95
2015-11-10T02:42:44.257Z,2.8
2015-11-10T02:42:57.569Z,2.9
2015-11-10T02:43:10.694Z,2.91
2015-11-10T02:43:23.979Z,2.98
2015-11-10T02:43:37.244Z,3.02
2015-11-10T02:43:50.525Z,3.02
2015-11-10T02:44:03.775Z,2.99
2015-11-10T02:44:17.059Z,3.01
2015-11-10T02:44:30.324Z,2.99
2015-11-10T02:44:43.606Z,2.98
2015-11-10T02:44:56.918Z,3.06
2015-11-10T02:45:10.231Z,2.9
2015-11-10T02:45:23.562Z,2.9
2015-11-10T02:45:36.843Z,2.96
2015-11-10T02:45:50.109Z,2.98
2015-11-10T02:46:03.390Z,2.95
2015-11-10T02:46:16.687Z,2.99
2015-11-10T02:46:29.971Z,3.02
2015-11-10T02:46:43.237Z,2.96
2015-11-10T02:46:56.533Z,2.98
2015-11-10T02:47:09.815Z,2.95
2015-11-10T02:47:23.115Z,2.96
2015-11-10T02:47:36.427Z,2.93
2015-11-10T02:47:49.740Z,2.93
2015-11-10T02:48:03.005Z,2.93
2015-11-10T02:48:16.286Z,2.88
2015-11-10T02:48:29.570Z,2.96
2015-11-10T02:48:42.835Z,2.98
2015-11-10T02:48:56.117Z,2.99
2015-11-10T02:49:09.382Z,2.98
2015-11-10T02:49:22.651Z,2.96
2015-11-10T02:49:35.916Z,2.99
2015-11-10T02:49:49.198Z,2.96
2015-11-10T02:50:02.510Z,2.95
2015-11-10T02:50:15.760Z,2.91
2015-11-10T02:50:29.012Z,2.95
2015-11-10T02:50:42.293Z,2.99
2015-11-10T02:50:55.575Z,2.91
2015-11-10T02:51:08.887Z,2.96
2015-11-10T02:51:22.153Z,2.87
2015-11-10T02:51:35.437Z,2.88
2015-11-10T02:51:48.734Z,2.96
2015-11-10T02:52:02.046Z,2.96
2015-11-10T02:52:15.343Z,2.95
2015-11-10T02:52:28.612Z,2.96
2015-11-10T02:52:41.878Z,2.96
2015-11-10T02:52:55.159Z,2.95
2015-11-10T02:53:08.440Z,2.87
2015-11-10T02:53:21.690Z,2.95
2015-11-10T02:53:34.974Z,2.91
2015-11-10T02:53:48.271Z,2.91
2015-11-10T02:54:01.568Z,2.84
2015-11-10T02:54:14.896Z,2.91
2015-11-10T02:54:28.165Z,2.91
2015-11-10T02:54:41.430Z,2.87
2015-11-10T02:54:54.712Z,2.93
2015-11-10T02:55:07.993Z,2.88
2015-11-10T02:55:21.274Z,2.91
2015-11-10T02:55:34.573Z,2.87
2015-11-10T02:55:47.917Z,2.91
2015-11-10T02:56:01.214Z,2.87
2015-11-10T02:56:14.495Z,2.85
2015-11-10T02:56:27.761Z,2.85
2015-11-10T02:56:41.029Z,2.95
2015-11-10T02:56:54.310Z,2.93
2015-11-10T02:57:07.576Z,2.88
2015-11-10T02:57:20.857Z,2.84
2015-11-10T02:57:34.157Z,2.91
2015-11-10T02:57:47.438Z,2.9
2015-11-10T02:58:00.751Z,2.9
2015-11-10T02:58:14.063Z,2.9
2015-11-10T02:58:27.360Z,2.91
2015-11-10T02:58:40.675Z,2.88
2015-11-10T02:58:53.956Z,2.93
2015-11-10T02:59:07.222Z,2.88